sensor_id;sensor_type;location;lat;lon;timestamp;P1;durP1;ratioP1;P2;durP2;ratioP2
17595;SDS011;8916;47.086;15.920;2024-02-26T00:00:52;11.43;;;3.53;;
17595;SDS011;8916;47.086;15.920;2024-02-26T00:03:21;8.77;;;4.15;;
17595;SDS011;8916;47.086;15.920;2024-02-26T00:05:50;9.10;;;3.78;;
17595;SDS011;8916;47.086;15.920;2024-02-26T00:08:20;9.68;;;4.05;;
17595;SDS011;8916;47.086;15.920;2024-02-26T00:10:49;9.15;;;3.97;;
17595;SDS011;8916;47.086;15.920;2024-02-26T00:13:20;8.35;;;3.88;;
17595;SDS011;8916;47.086;15.920;2024-02-26T00:15:49;10.27;;;4.20;;
17595;SDS011;8916;47.086;15.920;2024-02-26T00:18:18;9.10;;;4.05;;
17595;SDS011;8916;47.086;15.920;2024-02-26T00:20:47;7.43;;;4.18;;
17595;SDS011;8916;47.086;15.920;2024-02-26T00:23:16;15.10;;;4.88;;
17595;SDS011;8916;47.086;15.920;2024-02-26T00:25:45;8.75;;;5.03;;
17595;SDS011;8916;47.086;15.920;2024-02-26T00:28:14;11.45;;;5.68;;
17595;SDS011;8916;47.086;15.920;2024-02-26T00:30:45;14.35;;;5.43;;
17595;SDS011;8916;47.086;15.920;2024-02-26T00:33:15;11.48;;;4.72;;
17595;SDS011;8916;47.086;15.920;2024-02-26T00:35:45;17.60;;;5.97;;
17595;SDS011;8916;47.086;15.920;2024-02-26T00:38:14;13.65;;;5.63;;
17595;SDS011;8916;47.086;15.920;2024-02-26T00:40:44;13.18;;;6.18;;
17595;SDS011;8916;47.086;15.920;2024-02-26T00:43:12;15.77;;;6.97;;
17595;SDS011;8916;47.086;15.920;2024-02-26T00:45:41;19.10;;;7.28;;
17595;SDS011;8916;47.086;15.920;2024-02-26T00:48:12;12.90;;;6.65;;
17595;SDS011;8916;47.086;15.920;2024-02-26T00:50:41;14.00;;;6.70;;
17595;SDS011;8916;47.086;15.920;2024-02-26T00:53:11;19.15;;;6.57;;
17595;SDS011;8916;47.086;15.920;2024-02-26T00:55:40;20.50;;;6.35;;
17595;SDS011;8916;47.086;15.920;2024-02-26T00:58:09;17.73;;;6.85;;
17595;SDS011;8916;47.086;15.920;2024-02-26T01:00:38;15.95;;;6.20;;
17595;SDS011;8916;47.086;15.920;2024-02-26T01:03:07;12.30;;;6.10;;
17595;SDS011;8916;47.086;15.920;2024-02-26T01:05:39;11.98;;;5.32;;
17595;SDS011;8916;47.086;15.920;2024-02-26T01:08:08;12.18;;;6.05;;
17595;SDS011;8916;47.086;15.920;2024-02-26T01:10:37;14.68;;;5.70;;
17595;SDS011;8916;47.086;15.920;2024-02-26T01:13:06;12.60;;;5.78;;
17595;SDS011;8916;47.086;15.920;2024-02-26T01:15:36;11.50;;;5.85;;
17595;SDS011;8916;47.086;15.920;2024-02-26T01:18:05;14.77;;;5.57;;
17595;SDS011;8916;47.086;15.920;2024-02-26T01:20:34;17.25;;;6.30;;
17595;SDS011;8916;47.086;15.920;2024-02-26T01:23:05;9.93;;;5.53;;
17595;SDS011;8916;47.086;15.920;2024-02-26T01:25:34;14.32;;;5.45;;
17595;SDS011;8916;47.086;15.920;2024-02-26T01:28:04;13.32;;;5.82;;
17595;SDS011;8916;47.086;15.920;2024-02-26T01:30:33;16.38;;;6.32;;
17595;SDS011;8916;47.086;15.920;2024-02-26T01:33:02;10.95;;;6.18;;
17595;SDS011;8916;47.086;15.920;2024-02-26T01:35:32;12.60;;;6.25;;
17595;SDS011;8916;47.086;15.920;2024-02-26T01:38:01;12.43;;;6.00;;
17595;SDS011;8916;47.086;15.920;2024-02-26T01:40:31;15.65;;;5.57;;
17595;SDS011;8916;47.086;15.920;2024-02-26T01:43:01;14.77;;;4.82;;
17595;SDS011;8916;47.086;15.920;2024-02-26T01:45:30;10.10;;;5.05;;
17595;SDS011;8916;47.086;15.920;2024-02-26T01:47:59;15.75;;;4.97;;
17595;SDS011;8916;47.086;15.920;2024-02-26T01:50:30;10.35;;;5.22;;
17595;SDS011;8916;47.086;15.920;2024-02-26T01:53:01;12.77;;;4.88;;
17595;SDS011;8916;47.086;15.920;2024-02-26T01:55:32;10.68;;;5.47;;
17595;SDS011;8916;47.086;15.920;2024-02-26T01:58:01;12.15;;;5.65;;
17595;SDS011;8916;47.086;15.920;2024-02-26T02:00:31;12.73;;;5.05;;
17595;SDS011;8916;47.086;15.920;2024-02-26T02:03:00;9.90;;;3.88;;
17595;SDS011;8916;47.086;15.920;2024-02-26T02:05:30;7.57;;;3.38;;
17595;SDS011;8916;47.086;15.920;2024-02-26T02:08:01;9.48;;;4.10;;
17595;SDS011;8916;47.086;15.920;2024-02-26T02:10:33;12.23;;;4.20;;
17595;SDS011;8916;47.086;15.920;2024-02-26T02:13:03;8.38;;;3.42;;
17595;SDS011;8916;47.086;15.920;2024-02-26T02:15:32;6.90;;;3.50;;
17595;SDS011;8916;47.086;15.920;2024-02-26T02:18:02;7.22;;;3.47;;
17595;SDS011;8916;47.086;15.920;2024-02-26T02:20:33;8.35;;;3.25;;
17595;SDS011;8916;47.086;15.920;2024-02-26T02:23:02;8.55;;;3.47;;
17595;SDS011;8916;47.086;15.920;2024-02-26T02:25:32;11.32;;;3.80;;
17595;SDS011;8916;47.086;15.920;2024-02-26T02:28:02;8.85;;;3.65;;
17595;SDS011;8916;47.086;15.920;2024-02-26T02:30:32;8.20;;;4.18;;
17595;SDS011;8916;47.086;15.920;2024-02-26T02:33:03;7.07;;;3.63;;
17595;SDS011;8916;47.086;15.920;2024-02-26T02:35:34;7.57;;;3.63;;
17595;SDS011;8916;47.086;15.920;2024-02-26T02:38:03;9.23;;;4.03;;
17595;SDS011;8916;47.086;15.920;2024-02-26T02:40:32;7.03;;;3.40;;
17595;SDS011;8916;47.086;15.920;2024-02-26T02:43:02;9.20;;;3.58;;
17595;SDS011;8916;47.086;15.920;2024-02-26T02:45:31;11.88;;;3.95;;
17595;SDS011;8916;47.086;15.920;2024-02-26T02:48:00;11.40;;;4.22;;
17595;SDS011;8916;47.086;15.920;2024-02-26T02:50:30;9.95;;;4.30;;
17595;SDS011;8916;47.086;15.920;2024-02-26T02:53:00;7.47;;;3.88;;
17595;SDS011;8916;47.086;15.920;2024-02-26T02:55:29;10.18;;;3.92;;
17595;SDS011;8916;47.086;15.920;2024-02-26T02:57:58;7.75;;;3.88;;
17595;SDS011;8916;47.086;15.920;2024-02-26T03:00:27;9.15;;;3.58;;
17595;SDS011;8916;47.086;15.920;2024-02-26T03:02:56;6.80;;;3.80;;
17595;SDS011;8916;47.086;15.920;2024-02-26T03:05:25;9.48;;;4.57;;
17595;SDS011;8916;47.086;15.920;2024-02-26T03:07:54;8.15;;;3.85;;
17595;SDS011;8916;47.086;15.920;2024-02-26T03:10:25;8.52;;;3.80;;
17595;SDS011;8916;47.086;15.920;2024-02-26T03:12:54;6.07;;;3.30;;
17595;SDS011;8916;47.086;15.920;2024-02-26T03:15:23;7.03;;;3.83;;
17595;SDS011;8916;47.086;15.920;2024-02-26T03:17:52;9.75;;;4.38;;
17595;SDS011;8916;47.086;15.920;2024-02-26T03:20:21;9.55;;;4.28;;
17595;SDS011;8916;47.086;15.920;2024-02-26T03:22:50;11.25;;;5.25;;
17595;SDS011;8916;47.086;15.920;2024-02-26T03:25:19;12.30;;;5.03;;
17595;SDS011;8916;47.086;15.920;2024-02-26T03:27:49;13.85;;;5.22;;
17595;SDS011;8916;47.086;15.920;2024-02-26T03:30:18;9.45;;;4.63;;
17595;SDS011;8916;47.086;15.920;2024-02-26T03:32:48;12.35;;;5.28;;
17595;SDS011;8916;47.086;15.920;2024-02-26T03:35:17;11.15;;;5.50;;
17595;SDS011;8916;47.086;15.920;2024-02-26T03:37:46;10.13;;;5.50;;
17595;SDS011;8916;47.086;15.920;2024-02-26T03:40:17;12.57;;;5.40;;
17595;SDS011;8916;47.086;15.920;2024-02-26T03:42:46;13.07;;;4.43;;
17595;SDS011;8916;47.086;15.920;2024-02-26T03:45:17;11.35;;;5.90;;
17595;SDS011;8916;47.086;15.920;2024-02-26T03:47:46;12.43;;;4.68;;
17595;SDS011;8916;47.086;15.920;2024-02-26T03:50:15;11.63;;;4.82;;
17595;SDS011;8916;47.086;15.920;2024-02-26T03:52:44;11.23;;;4.88;;
17595;SDS011;8916;47.086;15.920;2024-02-26T03:55:13;11.80;;;4.97;;
17595;SDS011;8916;47.086;15.920;2024-02-26T03:57:43;20.85;;;5.85;;
17595;SDS011;8916;47.086;15.920;2024-02-26T04:00:12;10.23;;;5.68;;
17595;SDS011;8916;47.086;15.920;2024-02-26T04:02:43;18.15;;;5.32;;
17595;SDS011;8916;47.086;15.920;2024-02-26T04:05:12;16.35;;;5.13;;
17595;SDS011;8916;47.086;15.920;2024-02-26T04:07:42;12.68;;;4.55;;
17595;SDS011;8916;47.086;15.920;2024-02-26T04:10:11;8.52;;;4.05;;
17595;SDS011;8916;47.086;15.920;2024-02-26T04:12:42;11.63;;;3.90;;
17595;SDS011;8916;47.086;15.920;2024-02-26T04:15:11;8.60;;;4.78;;
17595;SDS011;8916;47.086;15.920;2024-02-26T04:17:40;9.30;;;4.40;;
17595;SDS011;8916;47.086;15.920;2024-02-26T04:20:14;11.40;;;4.55;;
17595;SDS011;8916;47.086;15.920;2024-02-26T04:22:44;11.43;;;4.47;;
17595;SDS011;8916;47.086;15.920;2024-02-26T04:25:13;12.10;;;4.68;;
17595;SDS011;8916;47.086;15.920;2024-02-26T04:27:42;8.15;;;3.70;;
17595;SDS011;8916;47.086;15.920;2024-02-26T04:30:11;13.40;;;4.75;;
17595;SDS011;8916;47.086;15.920;2024-02-26T04:32:41;10.88;;;4.82;;
17595;SDS011;8916;47.086;15.920;2024-02-26T04:35:10;9.55;;;4.47;;
17595;SDS011;8916;47.086;15.920;2024-02-26T04:37:41;9.85;;;3.95;;
17595;SDS011;8916;47.086;15.920;2024-02-26T04:40:10;9.05;;;4.22;;
17595;SDS011;8916;47.086;15.920;2024-02-26T04:42:39;10.60;;;4.97;;
17595;SDS011;8916;47.086;15.920;2024-02-26T04:45:08;12.10;;;4.22;;
17595;SDS011;8916;47.086;15.920;2024-02-26T04:47:37;10.00;;;4.18;;
17595;SDS011;8916;47.086;15.920;2024-02-26T04:50:07;9.38;;;4.78;;
17595;SDS011;8916;47.086;15.920;2024-02-26T04:52:37;16.27;;;5.90;;
17595;SDS011;8916;47.086;15.920;2024-02-26T04:55:07;9.13;;;4.93;;
17595;SDS011;8916;47.086;15.920;2024-02-26T04:57:36;11.52;;;5.20;;
17595;SDS011;8916;47.086;15.920;2024-02-26T05:00:06;14.27;;;5.50;;
17595;SDS011;8916;47.086;15.920;2024-02-26T05:02:37;12.60;;;5.88;;
17595;SDS011;8916;47.086;15.920;2024-02-26T05:05:06;14.77;;;6.53;;
17595;SDS011;8916;47.086;15.920;2024-02-26T05:07:39;10.40;;;5.28;;
17595;SDS011;8916;47.086;15.920;2024-02-26T05:10:11;16.55;;;5.55;;
17595;SDS011;8916;47.086;15.920;2024-02-26T05:12:40;12.35;;;5.65;;
17595;SDS011;8916;47.086;15.920;2024-02-26T05:15:10;10.32;;;5.78;;
17595;SDS011;8916;47.086;15.920;2024-02-26T05:17:46;12.52;;;4.97;;
17595;SDS011;8916;47.086;15.920;2024-02-26T05:20:15;12.00;;;5.32;;
17595;SDS011;8916;47.086;15.920;2024-02-26T05:22:44;12.85;;;5.38;;
17595;SDS011;8916;47.086;15.920;2024-02-26T05:25:16;10.00;;;6.03;;
17595;SDS011;8916;47.086;15.920;2024-02-26T05:27:45;14.93;;;6.22;;
17595;SDS011;8916;47.086;15.920;2024-02-26T05:30:15;16.58;;;6.13;;
17595;SDS011;8916;47.086;15.920;2024-02-26T05:32:44;16.90;;;6.30;;
17595;SDS011;8916;47.086;15.920;2024-02-26T05:35:14;14.82;;;6.15;;
17595;SDS011;8916;47.086;15.920;2024-02-26T05:37:43;16.30;;;6.40;;
17595;SDS011;8916;47.086;15.920;2024-02-26T05:40:12;15.85;;;6.07;;
17595;SDS011;8916;47.086;15.920;2024-02-26T05:42:43;15.95;;;5.75;;
17595;SDS011;8916;47.086;15.920;2024-02-26T05:45:12;11.68;;;5.80;;
17595;SDS011;8916;47.086;15.920;2024-02-26T05:47:41;15.30;;;5.65;;
17595;SDS011;8916;47.086;15.920;2024-02-26T05:50:11;12.35;;;5.00;;
17595;SDS011;8916;47.086;15.920;2024-02-26T05:52:42;11.93;;;5.65;;
17595;SDS011;8916;47.086;15.920;2024-02-26T05:55:11;12.57;;;5.05;;
17595;SDS011;8916;47.086;15.920;2024-02-26T05:57:41;12.82;;;5.38;;
17595;SDS011;8916;47.086;15.920;2024-02-26T06:00:12;12.23;;;5.25;;
17595;SDS011;8916;47.086;15.920;2024-02-26T06:02:42;10.85;;;5.57;;
17595;SDS011;8916;47.086;15.920;2024-02-26T06:05:11;15.88;;;5.45;;
17595;SDS011;8916;47.086;15.920;2024-02-26T06:07:40;14.70;;;6.45;;
17595;SDS011;8916;47.086;15.920;2024-02-26T06:10:09;15.23;;;5.90;;
17595;SDS011;8916;47.086;15.920;2024-02-26T06:12:41;16.02;;;6.57;;
17595;SDS011;8916;47.086;15.920;2024-02-26T06:15:11;20.20;;;6.45;;
17595;SDS011;8916;47.086;15.920;2024-02-26T06:17:40;16.00;;;6.10;;
17595;SDS011;8916;47.086;15.920;2024-02-26T06:20:10;16.27;;;6.07;;
17595;SDS011;8916;47.086;15.920;2024-02-26T06:22:40;15.07;;;6.57;;
17595;SDS011;8916;47.086;15.920;2024-02-26T06:25:10;16.50;;;5.85;;
17595;SDS011;8916;47.086;15.920;2024-02-26T06:27:39;21.33;;;6.63;;
17595;SDS011;8916;47.086;15.920;2024-02-26T06:30:08;13.18;;;5.90;;
17595;SDS011;8916;47.086;15.920;2024-02-26T06:32:40;15.65;;;5.43;;
17595;SDS011;8916;47.086;15.920;2024-02-26T06:35:09;11.43;;;5.78;;
17595;SDS011;8916;47.086;15.920;2024-02-26T06:37:39;12.52;;;5.50;;
17595;SDS011;8916;47.086;15.920;2024-02-26T06:40:08;16.42;;;5.80;;
17595;SDS011;8916;47.086;15.920;2024-02-26T06:42:37;17.08;;;6.50;;
17595;SDS011;8916;47.086;15.920;2024-02-26T06:45:07;16.63;;;6.15;;
17595;SDS011;8916;47.086;15.920;2024-02-26T06:47:36;13.07;;;5.97;;
17595;SDS011;8916;47.086;15.920;2024-02-26T06:50:07;13.65;;;5.72;;
17595;SDS011;8916;47.086;15.920;2024-02-26T06:52:37;15.23;;;6.93;;
17595;SDS011;8916;47.086;15.920;2024-02-26T06:55:07;16.75;;;6.13;;
17595;SDS011;8916;47.086;15.920;2024-02-26T06:57:36;10.75;;;5.65;;
17595;SDS011;8916;47.086;15.920;2024-02-26T07:00:05;12.98;;;5.70;;
17595;SDS011;8916;47.086;15.920;2024-02-26T07:02:36;12.07;;;5.82;;
17595;SDS011;8916;47.086;15.920;2024-02-26T07:05:08;15.05;;;5.70;;
17595;SDS011;8916;47.086;15.920;2024-02-26T07:07:37;12.02;;;5.07;;
17595;SDS011;8916;47.086;15.920;2024-02-26T07:10:07;8.80;;;5.43;;
17595;SDS011;8916;47.086;15.920;2024-02-26T07:12:39;10.80;;;5.50;;
17595;SDS011;8916;47.086;15.920;2024-02-26T07:15:10;12.05;;;5.28;;
17595;SDS011;8916;47.086;15.920;2024-02-26T07:17:39;11.05;;;5.25;;
17595;SDS011;8916;47.086;15.920;2024-02-26T07:20:15;12.73;;;5.85;;
17595;SDS011;8916;47.086;15.920;2024-02-26T07:22:45;10.48;;;5.45;;
17595;SDS011;8916;47.086;15.920;2024-02-26T07:25:14;10.93;;;5.15;;
17595;SDS011;8916;47.086;15.920;2024-02-26T07:27:44;13.18;;;5.20;;
17595;SDS011;8916;47.086;15.920;2024-02-26T07:30:13;14.18;;;4.93;;
17595;SDS011;8916;47.086;15.920;2024-02-26T07:32:43;13.23;;;5.32;;
17595;SDS011;8916;47.086;15.920;2024-02-26T07:35:18;10.93;;;5.30;;
17595;SDS011;8916;47.086;15.920;2024-02-26T07:37:48;10.35;;;5.55;;
17595;SDS011;8916;47.086;15.920;2024-02-26T07:40:18;10.45;;;5.45;;
17595;SDS011;8916;47.086;15.920;2024-02-26T07:42:47;10.65;;;5.63;;
17595;SDS011;8916;47.086;15.920;2024-02-26T07:45:16;12.45;;;5.47;;
17595;SDS011;8916;47.086;15.920;2024-02-26T07:47:47;16.75;;;7.05;;
17595;SDS011;8916;47.086;15.920;2024-02-26T07:50:16;15.27;;;5.82;;
17595;SDS011;8916;47.086;15.920;2024-02-26T07:52:48;8.98;;;5.30;;
17595;SDS011;8916;47.086;15.920;2024-02-26T07:55:18;12.25;;;5.93;;
17595;SDS011;8916;47.086;15.920;2024-02-26T07:57:47;13.50;;;5.93;;
17595;SDS011;8916;47.086;15.920;2024-02-26T08:00:16;13.00;;;5.90;;
17595;SDS011;8916;47.086;15.920;2024-02-26T08:02:46;12.70;;;5.43;;
17595;SDS011;8916;47.086;15.920;2024-02-26T08:05:15;11.00;;;5.57;;
17595;SDS011;8916;47.086;15.920;2024-02-26T08:07:44;12.80;;;5.75;;
17595;SDS011;8916;47.086;15.920;2024-02-26T08:10:15;10.98;;;5.93;;
17595;SDS011;8916;47.086;15.920;2024-02-26T08:12:44;10.93;;;5.45;;
17595;SDS011;8916;47.086;15.920;2024-02-26T08:15:13;10.23;;;6.35;;
17595;SDS011;8916;47.086;15.920;2024-02-26T08:17:42;10.85;;;5.35;;
17595;SDS011;8916;47.086;15.920;2024-02-26T08:20:11;12.00;;;4.95;;
17595;SDS011;8916;47.086;15.920;2024-02-26T08:22:41;7.43;;;4.85;;
17595;SDS011;8916;47.086;15.920;2024-02-26T08:25:10;13.77;;;5.30;;
17595;SDS011;8916;47.086;15.920;2024-02-26T08:27:39;8.73;;;4.97;;
17595;SDS011;8916;47.086;15.920;2024-02-26T08:30:09;12.50;;;5.25;;
17595;SDS011;8916;47.086;15.920;2024-02-26T08:32:40;8.30;;;5.07;;
17595;SDS011;8916;47.086;15.920;2024-02-26T08:35:10;9.82;;;4.85;;
17595;SDS011;8916;47.086;15.920;2024-02-26T08:37:39;13.15;;;5.05;;
17595;SDS011;8916;47.086;15.920;2024-02-26T08:40:08;7.55;;;4.15;;
17595;SDS011;8916;47.086;15.920;2024-02-26T08:42:39;9.63;;;3.90;;
17595;SDS011;8916;47.086;15.920;2024-02-26T08:45:09;8.63;;;4.28;;
17595;SDS011;8916;47.086;15.920;2024-02-26T08:47:40;9.05;;;4.10;;
17595;SDS011;8916;47.086;15.920;2024-02-26T08:50:09;9.02;;;4.00;;
17595;SDS011;8916;47.086;15.920;2024-02-26T08:52:39;16.25;;;4.15;;
17595;SDS011;8916;47.086;15.920;2024-02-26T08:55:08;7.82;;;3.88;;
17595;SDS011;8916;47.086;15.920;2024-02-26T08:57:37;9.35;;;3.40;;
17595;SDS011;8916;47.086;15.920;2024-02-26T09:00:09;6.05;;;3.20;;
17595;SDS011;8916;47.086;15.920;2024-02-26T09:02:39;9.90;;;4.80;;
17595;SDS011;8916;47.086;15.920;2024-02-26T09:05:09;8.43;;;4.00;;
17595;SDS011;8916;47.086;15.920;2024-02-26T09:07:38;10.23;;;4.40;;
17595;SDS011;8916;47.086;15.920;2024-02-26T09:10:08;8.30;;;3.97;;
17595;SDS011;8916;47.086;15.920;2024-02-26T09:12:38;6.63;;;3.30;;
17595;SDS011;8916;47.086;15.920;2024-02-26T09:15:09;8.88;;;3.40;;
17595;SDS011;8916;47.086;15.920;2024-02-26T09:17:38;7.13;;;3.10;;
17595;SDS011;8916;47.086;15.920;2024-02-26T09:20:08;7.82;;;3.35;;
17595;SDS011;8916;47.086;15.920;2024-02-26T09:22:37;5.30;;;3.20;;
17595;SDS011;8916;47.086;15.920;2024-02-26T09:25:06;7.07;;;2.90;;
17595;SDS011;8916;47.086;15.920;2024-02-26T09:27:36;6.47;;;3.05;;
17595;SDS011;8916;47.086;15.920;2024-02-26T09:30:11;5.03;;;2.85;;
17595;SDS011;8916;47.086;15.920;2024-02-26T09:32:45;5.93;;;2.83;;
17595;SDS011;8916;47.086;15.920;2024-02-26T09:35:15;6.10;;;2.92;;
17595;SDS011;8916;47.086;15.920;2024-02-26T09:37:44;6.55;;;3.10;;
17595;SDS011;8916;47.086;15.920;2024-02-26T09:40:13;7.30;;;3.20;;
17595;SDS011;8916;47.086;15.920;2024-02-26T09:42:43;5.88;;;3.30;;
17595;SDS011;8916;47.086;15.920;2024-02-26T09:45:18;6.50;;;3.28;;
17595;SDS011;8916;47.086;15.920;2024-02-26T09:47:49;6.65;;;3.13;;
17595;SDS011;8916;47.086;15.920;2024-02-26T09:50:19;7.00;;;2.80;;
17595;SDS011;8916;47.086;15.920;2024-02-26T09:52:51;6.75;;;2.42;;
17595;SDS011;8916;47.086;15.920;2024-02-26T09:55:21;4.22;;;2.60;;
17595;SDS011;8916;47.086;15.920;2024-02-26T09:57:51;4.93;;;2.60;;
17595;SDS011;8916;47.086;15.920;2024-02-26T10:00:22;3.10;;;2.05;;
17595;SDS011;8916;47.086;15.920;2024-02-26T10:02:51;4.25;;;2.22;;
17595;SDS011;8916;47.086;15.920;2024-02-26T10:05:23;9.45;;;2.30;;
17595;SDS011;8916;47.086;15.920;2024-02-26T10:07:54;6.05;;;2.40;;
17595;SDS011;8916;47.086;15.920;2024-02-26T10:10:24;6.05;;;2.05;;
17595;SDS011;8916;47.086;15.920;2024-02-26T10:12:55;1.98;;;1.63;;
17595;SDS011;8916;47.086;15.920;2024-02-26T10:15:25;4.65;;;2.10;;
17595;SDS011;8916;47.086;15.920;2024-02-26T10:17:55;4.35;;;1.90;;
17595;SDS011;8916;47.086;15.920;2024-02-26T10:20:24;2.35;;;1.38;;
17595;SDS011;8916;47.086;15.920;2024-02-26T10:22:55;5.97;;;2.35;;
17595;SDS011;8916;47.086;15.920;2024-02-26T10:25:23;5.43;;;2.30;;
17595;SDS011;8916;47.086;15.920;2024-02-26T10:27:52;3.08;;;1.55;;
17595;SDS011;8916;47.086;15.920;2024-02-26T10:30:22;5.57;;;1.58;;
17595;SDS011;8916;47.086;15.920;2024-02-26T10:32:55;3.08;;;1.27;;
17595;SDS011;8916;47.086;15.920;2024-02-26T10:35:24;2.38;;;1.20;;
17595;SDS011;8916;47.086;15.920;2024-02-26T10:37:55;1.67;;;1.02;;
17595;SDS011;8916;47.086;15.920;2024-02-26T10:40:24;1.75;;;1.00;;
17595;SDS011;8916;47.086;15.920;2024-02-26T10:42:52;1.90;;;1.23;;
17595;SDS011;8916;47.086;15.920;2024-02-26T10:45:21;3.78;;;1.10;;
17595;SDS011;8916;47.086;15.920;2024-02-26T10:47:50;2.38;;;1.20;;
17595;SDS011;8916;47.086;15.920;2024-02-26T10:50:21;3.92;;;0.93;;
17595;SDS011;8916;47.086;15.920;2024-02-26T10:52:50;1.92;;;0.80;;
17595;SDS011;8916;47.086;15.920;2024-02-26T10:55:20;2.90;;;0.98;;
17595;SDS011;8916;47.086;15.920;2024-02-26T10:57:51;2.15;;;1.13;;
17595;SDS011;8916;47.086;15.920;2024-02-26T11:00:21;2.75;;;1.13;;
17595;SDS011;8916;47.086;15.920;2024-02-26T11:02:51;1.25;;;1.00;;
17595;SDS011;8916;47.086;15.920;2024-02-26T11:05:23;1.75;;;0.93;;
17595;SDS011;8916;47.086;15.920;2024-02-26T11:07:52;2.95;;;1.10;;
17595;SDS011;8916;47.086;15.920;2024-02-26T11:10:21;6.43;;;1.40;;
17595;SDS011;8916;47.086;15.920;2024-02-26T11:12:53;2.55;;;0.90;;
17595;SDS011;8916;47.086;15.920;2024-02-26T11:15:24;1.85;;;1.10;;
17595;SDS011;8916;47.086;15.920;2024-02-26T11:17:53;2.70;;;1.30;;
17595;SDS011;8916;47.086;15.920;2024-02-26T11:20:25;1.83;;;1.15;;
17595;SDS011;8916;47.086;15.920;2024-02-26T11:22:57;2.20;;;1.10;;
17595;SDS011;8916;47.086;15.920;2024-02-26T11:25:26;3.00;;;1.40;;
17595;SDS011;8916;47.086;15.920;2024-02-26T11:27:56;2.67;;;1.40;;
17595;SDS011;8916;47.086;15.920;2024-02-26T11:30:30;2.00;;;1.33;;
17595;SDS011;8916;47.086;15.920;2024-02-26T11:33:03;1.60;;;1.15;;
17595;SDS011;8916;47.086;15.920;2024-02-26T11:35:37;2.20;;;1.30;;
17595;SDS011;8916;47.086;15.920;2024-02-26T11:38:07;3.70;;;1.38;;
17595;SDS011;8916;47.086;15.920;2024-02-26T11:40:37;6.78;;;1.35;;
17595;SDS011;8916;47.086;15.920;2024-02-26T11:43:08;3.08;;;1.23;;
17595;SDS011;8916;47.086;15.920;2024-02-26T11:45:49;6.45;;;1.50;;
17595;SDS011;8916;47.086;15.920;2024-02-26T11:48:20;4.60;;;1.27;;
17595;SDS011;8916;47.086;15.920;2024-02-26T11:50:52;2.10;;;1.15;;
17595;SDS011;8916;47.086;15.920;2024-02-26T11:53:23;4.22;;;1.48;;
17595;SDS011;8916;47.086;15.920;2024-02-26T11:56:12;1.80;;;1.20;;
17595;SDS011;8916;47.086;15.920;2024-02-26T11:59:01;2.58;;;1.48;;
17595;SDS011;8916;47.086;15.920;2024-02-26T12:01:37;3.15;;;1.10;;
17595;SDS011;8916;47.086;15.920;2024-02-26T12:06:45;3.25;;;1.30;;
17595;SDS011;8916;47.086;15.920;2024-02-26T12:09:31;2.85;;;1.45;;
17595;SDS011;8916;47.086;15.920;2024-02-26T12:12:02;2.05;;;1.23;;
17595;SDS011;8916;47.086;15.920;2024-02-26T12:14:34;3.58;;;1.17;;
17595;SDS011;8916;47.086;15.920;2024-02-26T12:17:05;2.63;;;1.00;;
17595;SDS011;8916;47.086;15.920;2024-02-26T12:19:36;1.55;;;1.20;;
17595;SDS011;8916;47.086;15.920;2024-02-26T12:22:13;2.40;;;1.27;;
17595;SDS011;8916;47.086;15.920;2024-02-26T12:24:42;1.63;;;1.13;;
17595;SDS011;8916;47.086;15.920;2024-02-26T12:27:12;2.03;;;1.25;;
17595;SDS011;8916;47.086;15.920;2024-02-26T12:29:42;2.33;;;1.20;;
17595;SDS011;8916;47.086;15.920;2024-02-26T12:32:11;2.00;;;1.15;;
17595;SDS011;8916;47.086;15.920;2024-02-26T12:34:41;2.35;;;1.13;;
17595;SDS011;8916;47.086;15.920;2024-02-26T12:37:12;3.00;;;1.50;;
17595;SDS011;8916;47.086;15.920;2024-02-26T12:39:41;2.33;;;1.13;;
17595;SDS011;8916;47.086;15.920;2024-02-26T12:42:10;3.55;;;1.27;;
17595;SDS011;8916;47.086;15.920;2024-02-26T12:44:40;2.22;;;1.10;;
17595;SDS011;8916;47.086;15.920;2024-02-26T12:47:08;1.65;;;1.20;;
17595;SDS011;8916;47.086;15.920;2024-02-26T12:49:43;2.08;;;1.30;;
17595;SDS011;8916;47.086;15.920;2024-02-26T12:52:17;2.05;;;1.20;;
17595;SDS011;8916;47.086;15.920;2024-02-26T12:54:47;3.45;;;1.25;;
17595;SDS011;8916;47.086;15.920;2024-02-26T12:57:17;4.43;;;1.23;;
17595;SDS011;8916;47.086;15.920;2024-02-26T12:59:46;3.40;;;1.30;;
17595;SDS011;8916;47.086;15.920;2024-02-26T13:02:15;2.33;;;1.38;;
17595;SDS011;8916;47.086;15.920;2024-02-26T13:04:44;3.30;;;1.27;;
17595;SDS011;8916;47.086;15.920;2024-02-26T13:07:13;3.05;;;1.67;;
17595;SDS011;8916;47.086;15.920;2024-02-26T13:09:44;2.10;;;1.40;;
17595;SDS011;8916;47.086;15.920;2024-02-26T13:12:13;2.35;;;1.20;;
17595;SDS011;8916;47.086;15.920;2024-02-26T13:14:42;3.40;;;1.20;;
17595;SDS011;8916;47.086;15.920;2024-02-26T13:17:11;3.85;;;1.33;;
17595;SDS011;8916;47.086;15.920;2024-02-26T13:19:48;1.67;;;1.23;;
17595;SDS011;8916;47.086;15.920;2024-02-26T13:22:20;3.58;;;1.60;;
17595;SDS011;8916;47.086;15.920;2024-02-26T13:24:54;3.78;;;1.50;;
17595;SDS011;8916;47.086;15.920;2024-02-26T13:27:25;5.03;;;1.50;;
17595;SDS011;8916;47.086;15.920;2024-02-26T13:30:04;3.70;;;1.40;;
17595;SDS011;8916;47.086;15.920;2024-02-26T13:32:37;4.85;;;1.58;;
17595;SDS011;8916;47.086;15.920;2024-02-26T13:35:08;2.15;;;1.40;;
17595;SDS011;8916;47.086;15.920;2024-02-26T13:37:39;5.88;;;1.23;;
17595;SDS011;8916;47.086;15.920;2024-02-26T13:40:10;3.92;;;1.30;;
17595;SDS011;8916;47.086;15.920;2024-02-26T13:42:40;2.40;;;1.30;;
17595;SDS011;8916;47.086;15.920;2024-02-26T13:45:09;2.28;;;1.23;;
17595;SDS011;8916;47.086;15.920;2024-02-26T13:47:38;2.17;;;1.48;;
17595;SDS011;8916;47.086;15.920;2024-02-26T13:50:09;2.58;;;1.33;;
17595;SDS011;8916;47.086;15.920;2024-02-26T13:52:38;4.03;;;1.50;;
17595;SDS011;8916;47.086;15.920;2024-02-26T13:55:07;2.17;;;1.38;;
17595;SDS011;8916;47.086;15.920;2024-02-26T13:57:38;2.45;;;1.50;;
17595;SDS011;8916;47.086;15.920;2024-02-26T14:00:09;5.25;;;1.58;;
17595;SDS011;8916;47.086;15.920;2024-02-26T14:02:40;2.35;;;1.10;;
17595;SDS011;8916;47.086;15.920;2024-02-26T14:05:09;2.63;;;1.48;;
17595;SDS011;8916;47.086;15.920;2024-02-26T14:07:38;3.50;;;1.38;;
17595;SDS011;8916;47.086;15.920;2024-02-26T14:10:08;5.22;;;1.23;;
17595;SDS011;8916;47.086;15.920;2024-02-26T14:12:41;2.05;;;1.05;;
17595;SDS011;8916;47.086;15.920;2024-02-26T14:15:11;5.05;;;1.00;;
17595;SDS011;8916;47.086;15.920;2024-02-26T14:17:40;1.90;;;0.80;;
17595;SDS011;8916;47.086;15.920;2024-02-26T14:20:11;2.90;;;1.15;;
17595;SDS011;8916;47.086;15.920;2024-02-26T14:22:40;1.35;;;0.90;;
17595;SDS011;8916;47.086;15.920;2024-02-26T14:25:10;1.85;;;1.00;;
17595;SDS011;8916;47.086;15.920;2024-02-26T14:27:39;1.38;;;0.70;;
17595;SDS011;8916;47.086;15.920;2024-02-26T14:30:10;1.73;;;0.85;;
17595;SDS011;8916;47.086;15.920;2024-02-26T14:32:40;1.80;;;0.90;;
17595;SDS011;8916;47.086;15.920;2024-02-26T14:35:09;0.98;;;0.77;;
17595;SDS011;8916;47.086;15.920;2024-02-26T14:37:43;2.35;;;1.10;;
17595;SDS011;8916;47.086;15.920;2024-02-26T14:40:15;1.75;;;1.00;;
17595;SDS011;8916;47.086;15.920;2024-02-26T14:42:45;1.75;;;0.90;;
17595;SDS011;8916;47.086;15.920;2024-02-26T14:45:15;7.60;;;0.85;;
17595;SDS011;8916;47.086;15.920;2024-02-26T14:47:44;1.08;;;0.85;;
17595;SDS011;8916;47.086;15.920;2024-02-26T14:50:13;1.52;;;0.88;;
17595;SDS011;8916;47.086;15.920;2024-02-26T14:52:43;1.15;;;0.60;;
17595;SDS011;8916;47.086;15.920;2024-02-26T14:55:12;1.40;;;0.90;;
17595;SDS011;8916;47.086;15.920;2024-02-26T14:57:41;1.25;;;0.68;;
17595;SDS011;8916;47.086;15.920;2024-02-26T15:00:12;2.85;;;0.95;;